createdAt,value
2019-01-31T00:00:32.145Z,26.90
2019-01-31T00:06:33.406Z,26.73
2019-01-31T00:12:12.657Z,25.53
2019-01-31T00:18:01.927Z,26.67
2019-01-31T00:23:41.953Z,26.67
2019-01-31T00:28:57.506Z,25.80
2019-01-31T00:34:43.343Z,25.43
2019-01-31T00:40:06.901Z,23.57
2019-01-31T00:45:50.649Z,23.00
2019-01-31T00:51:30.164Z,23.07
2019-01-31T00:57:31.617Z,23.13
2019-01-31T01:03:03.219Z,20.13
2019-01-31T01:08:47.907Z,18.80
2019-01-31T01:14:21.060Z,20.33
2019-01-31T01:20:21.498Z,22.70
2019-01-31T01:26:17.560Z,20.90
2019-01-31T01:32:09.654Z,19.60
2019-01-31T01:38:01.814Z,19.10
2019-01-31T01:43:20.356Z,16.33
2019-01-31T01:49:01.514Z,16.83
2019-01-31T01:55:01.784Z,18.73
2019-01-31T02:00:19.779Z,22.07
2019-01-31T02:06:17.873Z,17.33
2019-01-31T02:11:50.350Z,18.87
2019-01-31T02:17:14.467Z,15.87
2019-01-31T02:22:51.665Z,17.63
2019-01-31T02:28:17.627Z,18.60
2019-01-31T02:34:01.402Z,15.43
2019-01-31T02:39:43.413Z,15.23
2019-01-31T02:45:07.152Z,17.00
2019-01-31T02:51:02.246Z,13.87
2019-01-31T02:56:42.485Z,14.93
2019-01-31T03:02:17.735Z,16.40
2019-01-31T03:08:09.168Z,17.30
2019-01-31T03:13:19.825Z,15.67
2019-01-31T03:18:46.299Z,13.50
2019-01-31T03:24:32.639Z,16.10
2019-01-31T03:30:27.884Z,15.47
2019-01-31T03:36:35.240Z,16.93
2019-01-31T03:42:18.699Z,14.13
2019-01-31T03:48:04.638Z,17.97
2019-01-31T03:53:56.531Z,14.47
2019-01-31T03:59:15.269Z,18.70
2019-01-31T04:04:34.856Z,14.40
2019-01-31T04:09:41.877Z,11.70
2019-01-31T04:14:47.658Z,16.97
2019-01-31T04:19:54.299Z,15.97
2019-01-31T04:25:22.514Z,11.47
2019-01-31T04:30:33.219Z,10.97
2019-01-31T04:35:48.027Z,15.90
2019-01-31T04:40:53.502Z,11.83
2019-01-31T04:45:59.247Z,11.07
2019-01-31T04:51:06.252Z,12.93
2019-01-31T04:56:12.993Z,11.40
2019-01-31T05:01:19.432Z,14.33
2019-01-31T05:06:24.969Z,13.13
2019-01-31T05:11:30.909Z,12.03
2019-01-31T05:16:36.595Z,12.27
2019-01-31T05:21:42.001Z,9.80
2019-01-31T05:26:47.456Z,16.53
2019-01-31T05:31:53.088Z,10.43
2019-01-31T05:36:58.513Z,12.73
2019-01-31T05:42:04.357Z,13.73
2019-01-31T05:47:11.605Z,10.37
2019-01-31T05:52:17.724Z,12.00
2019-01-31T05:57:23.504Z,12.07
2019-01-31T06:02:30.799Z,13.10
2019-01-31T06:07:37.432Z,11.03
2019-01-31T06:12:43.863Z,13.17
2019-01-31T06:17:51.365Z,11.87
2019-01-31T06:22:57.120Z,10.37
2019-01-31T06:28:02.749Z,10.80
2019-01-31T06:33:09.904Z,12.00
2019-01-31T06:38:17.176Z,10.70
2019-01-31T06:43:24.930Z,10.37
2019-01-31T06:48:30.108Z,10.50
2019-01-31T06:53:36.533Z,10.60
2019-01-31T06:58:43.737Z,9.20
2019-01-31T07:03:51.226Z,9.63
2019-01-31T07:08:56.854Z,10.47
2019-01-31T07:14:01.760Z,11.77
2019-01-31T07:19:10.592Z,8.43
2019-01-31T07:24:16.026Z,8.77
2019-01-31T07:29:22.161Z,8.67
2019-01-31T07:34:28.777Z,8.27
2019-01-31T07:39:35.635Z,9.23
2019-01-31T07:44:52.526Z,10.87
2019-01-31T07:49:59.326Z,9.67
2019-01-31T07:55:06.333Z,10.40
2019-01-31T08:00:15.370Z,7.87
2019-01-31T08:05:23.123Z,11.33
2019-01-31T08:10:37.222Z,8.20
2019-01-31T08:15:43.313Z,10.37
2019-01-31T08:20:48.592Z,8.07
2019-01-31T08:25:55.794Z,8.30
2019-01-31T08:31:01.984Z,7.60
2019-01-31T08:36:08.101Z,11.17
2019-01-31T08:41:15.616Z,11.00
2019-01-31T08:46:21.737Z,9.43
2019-01-31T08:51:28.960Z,12.30
2019-01-31T08:56:36.397Z,10.67
2019-01-31T09:01:43.181Z,13.33
2019-01-31T09:06:48.957Z,14.07
2019-01-31T09:11:54.403Z,13.13
2019-01-31T09:17:00.589Z,11.73
2019-01-31T09:22:46.601Z,11.47
2019-01-31T09:28:40.347Z,11.50
2019-01-31T09:34:23.197Z,9.33
2019-01-31T09:40:00.346Z,7.50
2019-01-31T09:45:40.977Z,7.47
2019-01-31T09:51:41.053Z,9.63
2019-01-31T09:57:35.468Z,5.70
2019-01-31T10:03:26.796Z,6.40
2019-01-31T10:09:05.939Z,5.93
2019-01-31T10:14:22.327Z,4.87
2019-01-31T10:19:44.271Z,5.47
2019-01-31T10:25:05.558Z,4.90
2019-01-31T10:30:30.456Z,3.43
2019-01-31T10:36:05.923Z,5.33
2019-01-31T10:41:52.137Z,3.90
2019-01-31T10:47:37.421Z,4.50
2019-01-31T10:53:16.331Z,8.73
2019-01-31T10:58:50.534Z,5.80
2019-01-31T11:04:09.154Z,3.77
2019-01-31T11:10:10.971Z,7.63
2019-01-31T11:16:14.739Z,6.27
2019-01-31T11:21:47.789Z,5.77
2019-01-31T11:27:40.455Z,5.77
2019-01-31T11:33:14.485Z,4.73
2019-01-31T11:38:50.609Z,6.57
2019-01-31T11:44:40.808Z,5.47
2019-01-31T11:50:27.013Z,4.97
2019-01-31T11:56:28.652Z,8.53
2019-01-31T12:01:37.499Z,7.70
2019-01-31T12:06:43.306Z,6.83
2019-01-31T12:11:50.328Z,8.60
2019-01-31T12:16:55.535Z,6.90
2019-01-31T12:22:01.738Z,9.43
2019-01-31T12:27:08.894Z,7.50
2019-01-31T12:32:15.449Z,10.07
2019-01-31T12:37:21.924Z,8.37
2019-01-31T12:42:27.383Z,11.37
2019-01-31T12:47:33.812Z,9.47
2019-01-31T12:52:39.940Z,9.47
2019-01-31T12:57:47.409Z,11.17
2019-01-31T13:02:53.291Z,8.80
2019-01-31T13:08:00.020Z,10.47
2019-01-31T13:13:06.032Z,9.10
2019-01-31T13:18:11.428Z,10.93
2019-01-31T13:23:17.090Z,9.57
2019-01-31T13:28:22.528Z,10.70
2019-01-31T13:33:30.021Z,10.87
2019-01-31T13:38:35.921Z,9.60
2019-01-31T13:43:42.215Z,10.03
2019-01-31T13:48:47.672Z,9.90
2019-01-31T13:53:54.516Z,11.47
2019-01-31T13:59:01.645Z,11.93
2019-01-31T14:04:07.500Z,13.67
2019-01-31T14:09:14.584Z,10.13
2019-01-31T14:14:20.283Z,11.33
2019-01-31T14:19:27.265Z,10.43
2019-01-31T14:24:33.324Z,12.03
2019-01-31T14:29:39.163Z,12.30
2019-01-31T14:34:46.110Z,16.00
2019-01-31T14:39:51.925Z,11.10
2019-01-31T14:44:59.691Z,11.80
2019-01-31T14:50:07.933Z,13.00
2019-01-31T14:55:14.277Z,11.93
2019-01-31T15:00:22.968Z,16.97
2019-01-31T15:05:28.798Z,14.30
2019-01-31T15:10:35.206Z,12.87
2019-01-31T15:15:42.126Z,13.23
2019-01-31T15:20:48.243Z,11.97
2019-01-31T15:25:55.474Z,13.27
2019-01-31T15:31:01.816Z,11.43
2019-01-31T15:36:08.020Z,11.83
2019-01-31T15:41:13.578Z,10.77
2019-01-31T15:46:19.921Z,14.37
2019-01-31T15:51:27.056Z,13.90
2019-01-31T15:56:34.513Z,12.43
2019-01-31T16:01:40.789Z,10.90
2019-01-31T16:06:48.592Z,12.93
2019-01-31T16:11:54.548Z,13.13
2019-01-31T16:17:00.718Z,11.63
2019-01-31T16:22:08.918Z,12.93
2019-01-31T16:27:14.723Z,12.10
2019-01-31T16:32:21.157Z,12.87
2019-01-31T16:37:26.533Z,12.30
2019-01-31T16:42:32.677Z,14.37
2019-01-31T16:47:38.847Z,15.50
2019-01-31T16:53:00.496Z,15.10
2019-01-31T16:58:08.476Z,13.90
2019-01-31T17:03:15.380Z,15.40
2019-01-31T17:08:21.791Z,14.37
2019-01-31T17:13:30.124Z,15.80
2019-01-31T17:18:36.327Z,14.23
2019-01-31T17:23:41.696Z,13.83
2019-01-31T17:28:47.289Z,15.53
2019-01-31T17:33:53.752Z,15.87
2019-01-31T17:39:00.470Z,16.07
2019-01-31T17:44:06.943Z,18.20
2019-01-31T17:49:12.723Z,15.80
2019-01-31T17:54:25.035Z,17.33
2019-01-31T17:59:31.290Z,18.73
2019-01-31T18:04:37.347Z,17.97
2019-01-31T18:09:44.943Z,17.97
2019-01-31T18:14:51.866Z,15.87
2019-01-31T18:19:59.196Z,18.47
2019-01-31T18:25:05.964Z,21.33
2019-01-31T18:30:15.860Z,20.07
2019-01-31T18:35:22.026Z,17.97
2019-01-31T18:40:30.761Z,18.33
2019-01-31T18:45:37.073Z,18.20
2019-01-31T18:50:43.732Z,19.57
2019-01-31T18:55:50.458Z,17.93
2019-01-31T19:00:56.393Z,17.70
2019-01-31T19:06:01.936Z,17.00
2019-01-31T19:11:08.321Z,17.63
2019-01-31T19:16:14.399Z,16.73
2019-01-31T19:21:20.432Z,15.43
2019-01-31T19:26:26.459Z,15.57
2019-01-31T19:31:32.292Z,16.97
2019-01-31T19:36:38.252Z,14.17
2019-01-31T19:41:44.207Z,16.93
2019-01-31T19:46:50.024Z,19.20
2019-01-31T19:51:56.432Z,13.60
2019-01-31T19:57:03.066Z,15.83
2019-01-31T20:02:09.448Z,15.20
2019-01-31T20:07:17.516Z,16.70
2019-01-31T20:12:23.986Z,13.60
2019-01-31T20:17:29.825Z,13.70
2019-01-31T20:22:35.718Z,14.43
2019-01-31T20:27:41.757Z,15.10
2019-01-31T20:32:47.355Z,13.87
2019-01-31T20:37:52.845Z,13.97
2019-01-31T20:42:58.893Z,14.37
2019-01-31T20:48:05.962Z,14.47
2019-01-31T20:53:11.680Z,14.20
2019-01-31T20:58:19.267Z,16.23
2019-01-31T21:03:25.498Z,13.60
2019-01-31T21:08:34.271Z,14.27
2019-01-31T21:13:41.379Z,14.77
2019-01-31T21:18:50.104Z,12.13
2019-01-31T21:23:56.237Z,14.73
2019-01-31T21:29:02.294Z,12.47
2019-01-31T21:34:14.334Z,11.90
2019-01-31T21:39:21.198Z,13.07
2019-01-31T21:44:29.782Z,11.37
2019-01-31T21:49:36.568Z,12.97
2019-01-31T21:54:42.255Z,10.67
2019-01-31T21:59:48.684Z,11.93
2019-01-31T22:04:55.607Z,11.33
2019-01-31T22:10:05.894Z,11.63
2019-01-31T22:15:15.188Z,12.43
2019-01-31T22:20:20.688Z,10.83
2019-01-31T22:25:26.172Z,11.00
2019-01-31T22:30:41.209Z,10.33
2019-01-31T22:35:48.329Z,9.67
2019-01-31T22:40:54.621Z,11.57
2019-01-31T22:46:00.906Z,10.23
2019-01-31T22:51:07.667Z,9.37
2019-01-31T22:56:13.040Z,11.47
2019-01-31T23:01:46.817Z,8.73
2019-01-31T23:06:54.168Z,12.03
2019-01-31T23:12:00.548Z,12.07
2019-01-31T23:17:07.327Z,9.73
2019-01-31T23:22:13.130Z,8.37
2019-01-31T23:27:18.777Z,10.87
2019-01-31T23:32:24.259Z,10.27
2019-01-31T23:37:29.256Z,9.90
2019-01-31T23:42:37.242Z,9.67
2019-01-31T23:47:48.851Z,9.67
2019-01-31T23:52:51.485Z,8.43
2019-01-31T23:57:57.737Z,10.53
